Terminal Aerodrome Forecast
Issued by NWS Green Bay, WI

Home | Current Version | Previous Version | Text Only | Print | Product List | Glossary Off
Versions: 1 2 3 4 5 6 7 8 9 10 11 12 13 14 15 16 17 18 19 20 21 22 23 24 25 26 27 28

000
FTUS43 KGRB 141100
TAFGRB
TAF
KGRB 141120Z 1412/1512 19007KT P6SM OVC060
     FM141600 23010G16KT P6SM SCT060 BKN100
     FM142000 23009G15KT P6SM FEW060 SCT100
     FM150000 22006KT P6SM VCSH FEW045 BKN150
     FM150800 27003KT P6SM VCSH SCT050 BKN070 PROB30 1508/1512 6SM
      -SHRA BR BKN050=

USA.gov is the U.S. government's official web portal to all federal, state and local government web resources and services.